sensor_id;sensor_type;location;lat;lon;timestamp;P1;durP1;ratioP1;P2;durP2;ratioP2
19084;SDS011;9675;51.538;6.728;2023-10-13T00:00:28;14.57;;;7.73;;
19084;SDS011;9675;51.538;6.728;2023-10-13T00:03:00;18.13;;;7.97;;
19084;SDS011;9675;51.538;6.728;2023-10-13T00:05:28;15.80;;;7.60;;
19084;SDS011;9675;51.538;6.728;2023-10-13T00:07:58;13.30;;;7.20;;
19084;SDS011;9675;51.538;6.728;2023-10-13T00:10:27;14.40;;;7.20;;
19084;SDS011;9675;51.538;6.728;2023-10-13T00:12:55;15.03;;;6.83;;
19084;SDS011;9675;51.538;6.728;2023-10-13T00:15:31;13.83;;;6.80;;
19084;SDS011;9675;51.538;6.728;2023-10-13T00:18:03;13.10;;;6.77;;
19084;SDS011;9675;51.538;6.728;2023-10-13T00:20:37;16.20;;;7.43;;
19084;SDS011;9675;51.538;6.728;2023-10-13T00:23:07;15.30;;;6.93;;
19084;SDS011;9675;51.538;6.728;2023-10-13T00:25:34;14.40;;;6.90;;
19084;SDS011;9675;51.538;6.728;2023-10-13T00:28:08;18.20;;;6.90;;
19084;SDS011;9675;51.538;6.728;2023-10-13T00:30:36;12.47;;;6.77;;
19084;SDS011;9675;51.538;6.728;2023-10-13T00:33:03;14.57;;;6.97;;
19084;SDS011;9675;51.538;6.728;2023-10-13T00:35:30;17.47;;;7.73;;
19084;SDS011;9675;51.538;6.728;2023-10-13T00:38:02;11.83;;;6.17;;
19084;SDS011;9675;51.538;6.728;2023-10-13T00:40:39;20.50;;;6.53;;
19084;SDS011;9675;51.538;6.728;2023-10-13T00:43:08;16.97;;;6.37;;
19084;SDS011;9675;51.538;6.728;2023-10-13T00:45:53;14.10;;;6.50;;
19084;SDS011;9675;51.538;6.728;2023-10-13T00:48:22;11.83;;;6.63;;
19084;SDS011;9675;51.538;6.728;2023-10-13T00:50:59;16.40;;;6.70;;
19084;SDS011;9675;51.538;6.728;2023-10-13T00:53:31;16.43;;;6.47;;
19084;SDS011;9675;51.538;6.728;2023-10-13T00:56:00;14.10;;;6.73;;
19084;SDS011;9675;51.538;6.728;2023-10-13T00:58:32;11.07;;;5.63;;
19084;SDS011;9675;51.538;6.728;2023-10-13T01:00:59;12.00;;;6.00;;
19084;SDS011;9675;51.538;6.728;2023-10-13T01:03:42;11.40;;;5.33;;
19084;SDS011;9675;51.538;6.728;2023-10-13T01:06:10;13.53;;;6.70;;
19084;SDS011;9675;51.538;6.728;2023-10-13T01:08:39;8.87;;;5.37;;
19084;SDS011;9675;51.538;6.728;2023-10-13T01:11:10;12.97;;;6.07;;
19084;SDS011;9675;51.538;6.728;2023-10-13T01:13:38;11.10;;;5.77;;
19084;SDS011;9675;51.538;6.728;2023-10-13T01:16:06;12.57;;;5.40;;
19084;SDS011;9675;51.538;6.728;2023-10-13T01:18:33;11.47;;;6.40;;
19084;SDS011;9675;51.538;6.728;2023-10-13T01:21:12;10.23;;;5.63;;
19084;SDS011;9675;51.538;6.728;2023-10-13T01:23:42;14.87;;;6.57;;
19084;SDS011;9675;51.538;6.728;2023-10-13T01:26:11;11.13;;;6.20;;
19084;SDS011;9675;51.538;6.728;2023-10-13T01:28:41;12.83;;;6.43;;
19084;SDS011;9675;51.538;6.728;2023-10-13T01:31:13;12.33;;;7.27;;
19084;SDS011;9675;51.538;6.728;2023-10-13T01:33:49;14.03;;;7.23;;
19084;SDS011;9675;51.538;6.728;2023-10-13T01:36:20;12.80;;;6.50;;
19084;SDS011;9675;51.538;6.728;2023-10-13T01:38:48;9.37;;;5.70;;
19084;SDS011;9675;51.538;6.728;2023-10-13T01:41:16;12.97;;;6.30;;
19084;SDS011;9675;51.538;6.728;2023-10-13T01:43:43;13.03;;;6.43;;
19084;SDS011;9675;51.538;6.728;2023-10-13T01:46:10;14.07;;;6.30;;
19084;SDS011;9675;51.538;6.728;2023-10-13T01:48:40;9.40;;;6.23;;
19084;SDS011;9675;51.538;6.728;2023-10-13T01:51:08;12.30;;;6.57;;
19084;SDS011;9675;51.538;6.728;2023-10-13T01:53:35;11.80;;;6.47;;
19084;SDS011;9675;51.538;6.728;2023-10-13T01:56:05;16.13;;;6.67;;
19084;SDS011;9675;51.538;6.728;2023-10-13T01:58:35;9.73;;;5.70;;
19084;SDS011;9675;51.538;6.728;2023-10-13T02:01:06;8.37;;;6.07;;
19084;SDS011;9675;51.538;6.728;2023-10-13T02:03:33;14.03;;;6.53;;
19084;SDS011;9675;51.538;6.728;2023-10-13T02:06:06;9.80;;;5.60;;
19084;SDS011;9675;51.538;6.728;2023-10-13T02:08:35;11.23;;;6.77;;
19084;SDS011;9675;51.538;6.728;2023-10-13T02:11:10;10.33;;;5.90;;
19084;SDS011;9675;51.538;6.728;2023-10-13T02:13:37;13.87;;;6.00;;
19084;SDS011;9675;51.538;6.728;2023-10-13T02:16:13;9.67;;;5.77;;
19084;SDS011;9675;51.538;6.728;2023-10-13T02:18:44;13.33;;;6.23;;
19084;SDS011;9675;51.538;6.728;2023-10-13T02:21:16;12.43;;;6.27;;
19084;SDS011;9675;51.538;6.728;2023-10-13T02:23:43;10.37;;;5.63;;
19084;SDS011;9675;51.538;6.728;2023-10-13T02:26:12;15.93;;;6.43;;
19084;SDS011;9675;51.538;6.728;2023-10-13T02:28:40;11.73;;;6.13;;
19084;SDS011;9675;51.538;6.728;2023-10-13T02:31:06;11.67;;;6.70;;
19084;SDS011;9675;51.538;6.728;2023-10-13T02:33:34;14.23;;;6.27;;
19084;SDS011;9675;51.538;6.728;2023-10-13T02:36:03;12.57;;;7.07;;
19084;SDS011;9675;51.538;6.728;2023-10-13T02:38:30;13.53;;;6.13;;
19084;SDS011;9675;51.538;6.728;2023-10-13T02:41:00;15.00;;;6.20;;
19084;SDS011;9675;51.538;6.728;2023-10-13T02:43:34;18.57;;;6.97;;
19084;SDS011;9675;51.538;6.728;2023-10-13T02:46:00;14.40;;;6.53;;
19084;SDS011;9675;51.538;6.728;2023-10-13T02:48:30;11.30;;;6.17;;
19084;SDS011;9675;51.538;6.728;2023-10-13T02:51:05;12.13;;;6.80;;
19084;SDS011;9675;51.538;6.728;2023-10-13T02:53:40;14.50;;;6.37;;
19084;SDS011;9675;51.538;6.728;2023-10-13T02:56:11;15.50;;;6.97;;
19084;SDS011;9675;51.538;6.728;2023-10-13T02:58:41;19.43;;;7.67;;
19084;SDS011;9675;51.538;6.728;2023-10-13T03:01:10;17.03;;;6.73;;
19084;SDS011;9675;51.538;6.728;2023-10-13T03:03:44;10.63;;;4.90;;
19084;SDS011;9675;51.538;6.728;2023-10-13T03:06:15;14.27;;;6.00;;
19084;SDS011;9675;51.538;6.728;2023-10-13T03:08:46;26.57;;;7.67;;
19084;SDS011;9675;51.538;6.728;2023-10-13T03:11:13;15.07;;;7.60;;
19084;SDS011;9675;51.538;6.728;2023-10-13T03:13:47;13.33;;;7.83;;
19084;SDS011;9675;51.538;6.728;2023-10-13T03:16:17;19.60;;;8.00;;
19084;SDS011;9675;51.538;6.728;2023-10-13T03:18:46;14.93;;;7.17;;
19084;SDS011;9675;51.538;6.728;2023-10-13T03:21:23;16.93;;;7.40;;
19084;SDS011;9675;51.538;6.728;2023-10-13T03:23:56;18.80;;;7.83;;
19084;SDS011;9675;51.538;6.728;2023-10-13T03:26:30;13.93;;;6.83;;
19084;SDS011;9675;51.538;6.728;2023-10-13T03:29:01;17.17;;;7.50;;
19084;SDS011;9675;51.538;6.728;2023-10-13T03:31:33;18.43;;;7.80;;
19084;SDS011;9675;51.538;6.728;2023-10-13T03:34:02;20.30;;;8.20;;
19084;SDS011;9675;51.538;6.728;2023-10-13T03:36:35;14.67;;;6.90;;
19084;SDS011;9675;51.538;6.728;2023-10-13T03:39:20;15.87;;;7.90;;
19084;SDS011;9675;51.538;6.728;2023-10-13T03:41:52;17.97;;;7.53;;
19084;SDS011;9675;51.538;6.728;2023-10-13T03:44:20;20.57;;;7.70;;
19084;SDS011;9675;51.538;6.728;2023-10-13T03:46:48;12.27;;;6.60;;
19084;SDS011;9675;51.538;6.728;2023-10-13T03:49:19;15.23;;;7.50;;
19084;SDS011;9675;51.538;6.728;2023-10-13T03:51:47;16.07;;;7.57;;
19084;SDS011;9675;51.538;6.728;2023-10-13T03:54:15;26.53;;;7.87;;
19084;SDS011;9675;51.538;6.728;2023-10-13T03:56:43;16.37;;;6.80;;
19084;SDS011;9675;51.538;6.728;2023-10-13T03:59:10;15.53;;;7.33;;
19084;SDS011;9675;51.538;6.728;2023-10-13T04:01:45;12.53;;;5.70;;
19084;SDS011;9675;51.538;6.728;2023-10-13T04:04:23;9.90;;;4.43;;
19084;SDS011;9675;51.538;6.728;2023-10-13T04:07:07;15.10;;;6.50;;
19084;SDS011;9675;51.538;6.728;2023-10-13T04:10:04;16.47;;;6.50;;
19084;SDS011;9675;51.538;6.728;2023-10-13T04:12:59;14.47;;;7.83;;
19084;SDS011;9675;51.538;6.728;2023-10-13T04:15:44;16.57;;;7.53;;
19084;SDS011;9675;51.538;6.728;2023-10-13T04:18:26;16.43;;;7.90;;
19084;SDS011;9675;51.538;6.728;2023-10-13T04:20:59;17.47;;;6.50;;
19084;SDS011;9675;51.538;6.728;2023-10-13T04:23:44;14.03;;;7.17;;
19084;SDS011;9675;51.538;6.728;2023-10-13T04:26:29;19.13;;;8.37;;
19084;SDS011;9675;51.538;6.728;2023-10-13T04:29:02;25.27;;;7.47;;
19084;SDS011;9675;51.538;6.728;2023-10-13T04:31:36;19.27;;;8.13;;
19084;SDS011;9675;51.538;6.728;2023-10-13T04:34:23;17.60;;;7.57;;
19084;SDS011;9675;51.538;6.728;2023-10-13T04:36:59;14.27;;;7.23;;
19084;SDS011;9675;51.538;6.728;2023-10-13T04:39:48;14.20;;;6.87;;
19084;SDS011;9675;51.538;6.728;2023-10-13T04:42:21;13.80;;;6.60;;
19084;SDS011;9675;51.538;6.728;2023-10-13T04:45:04;13.93;;;6.73;;
19084;SDS011;9675;51.538;6.728;2023-10-13T04:47:52;10.83;;;5.97;;
19084;SDS011;9675;51.538;6.728;2023-10-13T04:50:39;11.17;;;5.83;;
19084;SDS011;9675;51.538;6.728;2023-10-13T04:53:10;15.67;;;6.83;;
19084;SDS011;9675;51.538;6.728;2023-10-13T04:55:53;16.37;;;7.27;;
19084;SDS011;9675;51.538;6.728;2023-10-13T04:58:52;14.60;;;6.63;;
19084;SDS011;9675;51.538;6.728;2023-10-13T05:01:39;15.77;;;7.03;;
19084;SDS011;9675;51.538;6.728;2023-10-13T05:04:24;16.70;;;7.27;;
19084;SDS011;9675;51.538;6.728;2023-10-13T05:07:05;15.67;;;7.20;;
19084;SDS011;9675;51.538;6.728;2023-10-13T05:09:49;17.43;;;7.73;;
19084;SDS011;9675;51.538;6.728;2023-10-13T05:12:34;13.57;;;5.90;;
19084;SDS011;9675;51.538;6.728;2023-10-13T05:15:19;13.27;;;6.00;;
19084;SDS011;9675;51.538;6.728;2023-10-13T05:18:03;13.53;;;5.70;;
19084;SDS011;9675;51.538;6.728;2023-10-13T05:20:48;10.50;;;6.30;;
19084;SDS011;9675;51.538;6.728;2023-10-13T05:23:34;19.47;;;7.20;;
19084;SDS011;9675;51.538;6.728;2023-10-13T05:26:18;14.77;;;6.37;;
19084;SDS011;9675;51.538;6.728;2023-10-13T05:29:03;9.27;;;3.90;;
19084;SDS011;9675;51.538;6.728;2023-10-13T05:31:47;0.50;;;0.50;;
19084;SDS011;9675;51.538;6.728;2023-10-13T05:34:32;0.10;;;0.10;;
19084;SDS011;9675;51.538;6.728;2023-10-13T05:37:17;0.47;;;0.47;;
19084;SDS011;9675;51.538;6.728;2023-10-13T05:40:03;1.43;;;1.17;;
19084;SDS011;9675;51.538;6.728;2023-10-13T05:42:48;0.40;;;0.40;;
19084;SDS011;9675;51.538;6.728;2023-10-13T05:45:34;1.63;;;0.90;;
19084;SDS011;9675;51.538;6.728;2023-10-13T05:48:26;0.87;;;0.47;;
19084;SDS011;9675;51.538;6.728;2023-10-13T05:51:07;0.30;;;0.30;;
19084;SDS011;9675;51.538;6.728;2023-10-13T05:54:03;0.80;;;0.73;;
19084;SDS011;9675;51.538;6.728;2023-10-13T05:56:50;1.03;;;0.80;;
19084;SDS011;9675;51.538;6.728;2023-10-13T05:59:35;0.70;;;0.43;;
19084;SDS011;9675;51.538;6.728;2023-10-13T06:02:22;1.03;;;0.70;;
19084;SDS011;9675;51.538;6.728;2023-10-13T06:05:08;0.87;;;0.87;;
19084;SDS011;9675;51.538;6.728;2023-10-13T06:07:55;0.17;;;0.10;;
19084;SDS011;9675;51.538;6.728;2023-10-13T06:10:41;0.53;;;0.53;;
19084;SDS011;9675;51.538;6.728;2023-10-13T06:13:28;0.43;;;0.43;;
19084;SDS011;9675;51.538;6.728;2023-10-13T06:16:13;1.23;;;0.83;;
19084;SDS011;9675;51.538;6.728;2023-10-13T06:19:00;2.53;;;1.13;;
19084;SDS011;9675;51.538;6.728;2023-10-13T06:21:45;10.00;;;0.83;;
19084;SDS011;9675;51.538;6.728;2023-10-13T06:24:31;0.20;;;0.20;;
19084;SDS011;9675;51.538;6.728;2023-10-13T06:27:15;0.50;;;0.37;;
19084;SDS011;9675;51.538;6.728;2023-10-13T06:30:11;3.90;;;1.10;;
19084;SDS011;9675;51.538;6.728;2023-10-13T06:32:38;1.17;;;0.73;;
19084;SDS011;9675;51.538;6.728;2023-10-13T06:35:06;0.40;;;0.27;;
19084;SDS011;9675;51.538;6.728;2023-10-13T06:37:34;0.20;;;0.20;;
19084;SDS011;9675;51.538;6.728;2023-10-13T06:40:08;0.40;;;0.40;;
19084;SDS011;9675;51.538;6.728;2023-10-13T06:42:47;4.07;;;1.63;;
19084;SDS011;9675;51.538;6.728;2023-10-13T06:45:16;2.10;;;0.50;;
19084;SDS011;9675;51.538;6.728;2023-10-13T06:47:43;0.17;;;0.17;;
19084;SDS011;9675;51.538;6.728;2023-10-13T06:50:10;0.00;;;0.00;;
19084;SDS011;9675;51.538;6.728;2023-10-13T06:52:41;0.57;;;0.57;;
19084;SDS011;9675;51.538;6.728;2023-10-13T06:55:08;0.67;;;0.63;;
19084;SDS011;9675;51.538;6.728;2023-10-13T06:57:36;1.43;;;0.37;;
19084;SDS011;9675;51.538;6.728;2023-10-13T07:00:08;9.53;;;1.37;;
19084;SDS011;9675;51.538;6.728;2023-10-13T07:02:46;0.60;;;0.50;;
19084;SDS011;9675;51.538;6.728;2023-10-13T07:05:13;6.43;;;1.50;;
19084;SDS011;9675;51.538;6.728;2023-10-13T07:07:40;0.20;;;0.20;;
19084;SDS011;9675;51.538;6.728;2023-10-13T07:10:09;0.50;;;0.23;;
19084;SDS011;9675;51.538;6.728;2023-10-13T07:12:37;2.70;;;0.27;;
19084;SDS011;9675;51.538;6.728;2023-10-13T07:15:08;1.77;;;1.00;;
19084;SDS011;9675;51.538;6.728;2023-10-13T07:17:45;1.97;;;0.77;;
19084;SDS011;9675;51.538;6.728;2023-10-13T07:20:19;7.00;;;1.53;;
19084;SDS011;9675;51.538;6.728;2023-10-13T07:22:49;0.03;;;0.03;;
19084;SDS011;9675;51.538;6.728;2023-10-13T07:25:22;3.93;;;1.20;;
19084;SDS011;9675;51.538;6.728;2023-10-13T07:27:51;9.33;;;3.27;;
19084;SDS011;9675;51.538;6.728;2023-10-13T07:30:19;8.33;;;3.83;;
19084;SDS011;9675;51.538;6.728;2023-10-13T07:32:53;16.93;;;4.53;;
19084;SDS011;9675;51.538;6.728;2023-10-13T07:35:22;7.30;;;3.63;;
19084;SDS011;9675;51.538;6.728;2023-10-13T07:37:51;12.67;;;4.50;;
19084;SDS011;9675;51.538;6.728;2023-10-13T07:40:20;8.67;;;4.43;;
19084;SDS011;9675;51.538;6.728;2023-10-13T07:43:04;14.13;;;5.07;;
19084;SDS011;9675;51.538;6.728;2023-10-13T07:45:35;11.47;;;4.73;;
19084;SDS011;9675;51.538;6.728;2023-10-13T07:48:05;11.40;;;3.53;;
19084;SDS011;9675;51.538;6.728;2023-10-13T07:50:42;10.80;;;3.77;;
19084;SDS011;9675;51.538;6.728;2023-10-13T07:53:10;12.40;;;4.67;;
19084;SDS011;9675;51.538;6.728;2023-10-13T07:55:47;13.17;;;3.73;;
19084;SDS011;9675;51.538;6.728;2023-10-13T07:58:20;11.93;;;4.93;;
19084;SDS011;9675;51.538;6.728;2023-10-13T08:00:49;14.83;;;5.27;;
19084;SDS011;9675;51.538;6.728;2023-10-13T08:03:32;13.37;;;4.63;;
19084;SDS011;9675;51.538;6.728;2023-10-13T08:06:12;14.40;;;4.57;;
19084;SDS011;9675;51.538;6.728;2023-10-13T08:08:46;10.47;;;4.83;;
19084;SDS011;9675;51.538;6.728;2023-10-13T08:11:18;8.03;;;4.50;;
19084;SDS011;9675;51.538;6.728;2023-10-13T08:13:56;13.07;;;4.37;;
19084;SDS011;9675;51.538;6.728;2023-10-13T08:16:25;8.13;;;4.63;;
19084;SDS011;9675;51.538;6.728;2023-10-13T08:19:12;14.23;;;3.93;;
19084;SDS011;9675;51.538;6.728;2023-10-13T08:21:41;9.67;;;4.53;;
19084;SDS011;9675;51.538;6.728;2023-10-13T08:24:15;11.77;;;4.73;;
19084;SDS011;9675;51.538;6.728;2023-10-13T08:26:50;10.70;;;4.30;;
19084;SDS011;9675;51.538;6.728;2023-10-13T08:29:22;10.83;;;4.07;;
19084;SDS011;9675;51.538;6.728;2023-10-13T08:32:07;11.67;;;4.13;;
19084;SDS011;9675;51.538;6.728;2023-10-13T08:34:46;9.47;;;4.17;;
19084;SDS011;9675;51.538;6.728;2023-10-13T08:37:34;12.47;;;4.60;;
19084;SDS011;9675;51.538;6.728;2023-10-13T08:40:12;13.83;;;4.63;;
19084;SDS011;9675;51.538;6.728;2023-10-13T08:43:02;15.83;;;3.73;;
19084;SDS011;9675;51.538;6.728;2023-10-13T08:45:37;12.50;;;3.87;;
19084;SDS011;9675;51.538;6.728;2023-10-13T08:48:24;12.17;;;4.80;;
19084;SDS011;9675;51.538;6.728;2023-10-13T08:50:58;15.90;;;3.80;;
19084;SDS011;9675;51.538;6.728;2023-10-13T08:53:35;14.90;;;3.37;;
19084;SDS011;9675;51.538;6.728;2023-10-13T08:56:11;13.40;;;3.97;;
19084;SDS011;9675;51.538;6.728;2023-10-13T08:58:43;9.83;;;4.47;;
19084;SDS011;9675;51.538;6.728;2023-10-13T09:01:35;8.27;;;4.00;;
19084;SDS011;9675;51.538;6.728;2023-10-13T09:04:11;19.57;;;4.33;;
19084;SDS011;9675;51.538;6.728;2023-10-13T09:07:00;8.97;;;4.27;;
19084;SDS011;9675;51.538;6.728;2023-10-13T09:09:43;8.90;;;3.70;;
19084;SDS011;9675;51.538;6.728;2023-10-13T09:12:25;13.13;;;4.47;;
19084;SDS011;9675;51.538;6.728;2023-10-13T09:15:05;16.03;;;4.50;;
19084;SDS011;9675;51.538;6.728;2023-10-13T09:17:43;15.93;;;5.20;;
19084;SDS011;9675;51.538;6.728;2023-10-13T09:20:27;11.70;;;5.37;;
19084;SDS011;9675;51.538;6.728;2023-10-13T09:23:09;19.70;;;6.30;;
19084;SDS011;9675;51.538;6.728;2023-10-13T09:25:48;23.37;;;7.10;;
19084;SDS011;9675;51.538;6.728;2023-10-13T09:28:19;17.60;;;6.70;;
19084;SDS011;9675;51.538;6.728;2023-10-13T09:30:50;25.30;;;6.40;;
19084;SDS011;9675;51.538;6.728;2023-10-13T09:33:19;21.63;;;6.57;;
19084;SDS011;9675;51.538;6.728;2023-10-13T09:35:53;19.90;;;5.73;;
19084;SDS011;9675;51.538;6.728;2023-10-13T09:38:25;16.40;;;5.70;;
19084;SDS011;9675;51.538;6.728;2023-10-13T09:40:53;11.10;;;4.20;;
19084;SDS011;9675;51.538;6.728;2023-10-13T09:43:22;11.73;;;3.77;;
19084;SDS011;9675;51.538;6.728;2023-10-13T09:45:50;13.13;;;3.93;;
19084;SDS011;9675;51.538;6.728;2023-10-13T09:48:31;8.00;;;3.63;;
19084;SDS011;9675;51.538;6.728;2023-10-13T09:50:59;7.23;;;2.90;;
19084;SDS011;9675;51.538;6.728;2023-10-13T09:53:31;13.60;;;3.90;;
19084;SDS011;9675;51.538;6.728;2023-10-13T09:56:00;10.63;;;3.13;;
19084;SDS011;9675;51.538;6.728;2023-10-13T09:58:42;11.13;;;3.70;;
19084;SDS011;9675;51.538;6.728;2023-10-13T10:01:17;15.10;;;3.57;;
19084;SDS011;9675;51.538;6.728;2023-10-13T10:04:06;9.23;;;3.23;;
19084;SDS011;9675;51.538;6.728;2023-10-13T10:06:34;6.87;;;3.07;;
19084;SDS011;9675;51.538;6.728;2023-10-13T10:09:10;6.83;;;3.27;;
19084;SDS011;9675;51.538;6.728;2023-10-13T10:15:03;11.97;;;3.17;;
19084;SDS011;9675;51.538;6.728;2023-10-13T10:17:39;9.90;;;3.30;;
19084;SDS011;9675;51.538;6.728;2023-10-13T10:20:09;8.10;;;3.73;;
19084;SDS011;9675;51.538;6.728;2023-10-13T10:22:56;10.67;;;3.90;;
19084;SDS011;9675;51.538;6.728;2023-10-13T10:25:30;13.83;;;4.00;;
19084;SDS011;9675;51.538;6.728;2023-10-13T10:28:01;12.37;;;3.00;;
19084;SDS011;9675;51.538;6.728;2023-10-13T10:30:31;11.60;;;3.17;;
19084;SDS011;9675;51.538;6.728;2023-10-13T10:33:00;7.47;;;3.50;;
19084;SDS011;9675;51.538;6.728;2023-10-13T10:35:37;8.60;;;3.70;;
19084;SDS011;9675;51.538;6.728;2023-10-13T10:38:09;6.77;;;3.23;;
19084;SDS011;9675;51.538;6.728;2023-10-13T10:40:54;12.73;;;3.40;;
19084;SDS011;9675;51.538;6.728;2023-10-13T10:43:26;8.90;;;3.73;;
19084;SDS011;9675;51.538;6.728;2023-10-13T10:46:07;8.07;;;3.27;;
19084;SDS011;9675;51.538;6.728;2023-10-13T10:48:36;8.20;;;3.60;;
19084;SDS011;9675;51.538;6.728;2023-10-13T10:51:08;7.63;;;3.00;;
19084;SDS011;9675;51.538;6.728;2023-10-13T10:53:46;8.50;;;3.27;;
19084;SDS011;9675;51.538;6.728;2023-10-13T10:56:16;7.97;;;3.33;;
19084;SDS011;9675;51.538;6.728;2023-10-13T10:58:50;7.27;;;3.37;;
19084;SDS011;9675;51.538;6.728;2023-10-13T11:01:21;8.20;;;3.13;;
19084;SDS011;9675;51.538;6.728;2023-10-13T11:03:55;14.53;;;3.27;;
19084;SDS011;9675;51.538;6.728;2023-10-13T11:06:33;8.50;;;3.00;;
19084;SDS011;9675;51.538;6.728;2023-10-13T11:09:07;6.93;;;3.43;;
19084;SDS011;9675;51.538;6.728;2023-10-13T11:11:45;10.27;;;3.63;;
19084;SDS011;9675;51.538;6.728;2023-10-13T11:14:20;10.23;;;3.80;;
19084;SDS011;9675;51.538;6.728;2023-10-13T11:16:49;7.73;;;3.40;;
19084;SDS011;9675;51.538;6.728;2023-10-13T11:19:18;14.03;;;4.33;;
19084;SDS011;9675;51.538;6.728;2023-10-13T11:21:53;10.40;;;3.87;;
19084;SDS011;9675;51.538;6.728;2023-10-13T11:24:21;16.27;;;3.83;;
19084;SDS011;9675;51.538;6.728;2023-10-13T11:26:50;12.30;;;4.03;;
19084;SDS011;9675;51.538;6.728;2023-10-13T11:29:19;6.43;;;4.03;;
19084;SDS011;9675;51.538;6.728;2023-10-13T11:31:59;7.73;;;3.87;;
19084;SDS011;9675;51.538;6.728;2023-10-13T11:34:28;8.27;;;3.70;;
19084;SDS011;9675;51.538;6.728;2023-10-13T11:37:04;12.37;;;4.53;;
19084;SDS011;9675;51.538;6.728;2023-10-13T11:39:46;9.63;;;3.80;;
19084;SDS011;9675;51.538;6.728;2023-10-13T11:42:14;8.43;;;3.67;;
19084;SDS011;9675;51.538;6.728;2023-10-13T11:44:42;20.43;;;4.70;;
19084;SDS011;9675;51.538;6.728;2023-10-13T11:47:09;20.33;;;4.67;;
19084;SDS011;9675;51.538;6.728;2023-10-13T11:49:50;10.03;;;4.90;;
19084;SDS011;9675;51.538;6.728;2023-10-13T11:52:21;12.70;;;4.67;;
19084;SDS011;9675;51.538;6.728;2023-10-13T11:54:51;12.50;;;3.43;;
19084;SDS011;9675;51.538;6.728;2023-10-13T11:57:19;7.63;;;3.43;;
19084;SDS011;9675;51.538;6.728;2023-10-13T11:59:47;16.57;;;3.93;;
19084;SDS011;9675;51.538;6.728;2023-10-13T12:02:40;9.70;;;3.40;;
19084;SDS011;9675;51.538;6.728;2023-10-13T12:05:25;10.60;;;4.13;;
19084;SDS011;9675;51.538;6.728;2023-10-13T12:08:02;11.50;;;4.10;;
19084;SDS011;9675;51.538;6.728;2023-10-13T12:10:44;9.27;;;3.90;;
19084;SDS011;9675;51.538;6.728;2023-10-13T12:13:26;15.90;;;3.97;;
19084;SDS011;9675;51.538;6.728;2023-10-13T12:15:53;11.67;;;3.77;;
19084;SDS011;9675;51.538;6.728;2023-10-13T12:18:21;8.33;;;3.43;;
19084;SDS011;9675;51.538;6.728;2023-10-13T12:20:51;9.83;;;3.10;;
19084;SDS011;9675;51.538;6.728;2023-10-13T12:23:18;14.83;;;3.90;;
19084;SDS011;9675;51.538;6.728;2023-10-13T12:25:56;8.07;;;3.63;;
19084;SDS011;9675;51.538;6.728;2023-10-13T12:28:26;7.43;;;3.00;;
19084;SDS011;9675;51.538;6.728;2023-10-13T12:30:56;10.60;;;3.37;;
19084;SDS011;9675;51.538;6.728;2023-10-13T12:33:32;15.43;;;3.50;;
19084;SDS011;9675;51.538;6.728;2023-10-13T12:36:05;15.80;;;3.67;;
19084;SDS011;9675;51.538;6.728;2023-10-13T12:38:34;12.93;;;3.17;;
19084;SDS011;9675;51.538;6.728;2023-10-13T12:41:16;11.90;;;2.70;;
19084;SDS011;9675;51.538;6.728;2023-10-13T12:44:04;8.47;;;3.23;;
19084;SDS011;9675;51.538;6.728;2023-10-13T12:46:50;9.33;;;2.90;;
19084;SDS011;9675;51.538;6.728;2023-10-13T12:49:37;19.50;;;3.97;;
19084;SDS011;9675;51.538;6.728;2023-10-13T12:52:23;13.63;;;4.07;;
19084;SDS011;9675;51.538;6.728;2023-10-13T12:54:57;15.23;;;3.80;;
19084;SDS011;9675;51.538;6.728;2023-10-13T12:57:35;9.97;;;3.23;;
19084;SDS011;9675;51.538;6.728;2023-10-13T13:00:10;16.23;;;3.53;;
19084;SDS011;9675;51.538;6.728;2023-10-13T13:02:49;15.50;;;3.93;;
19084;SDS011;9675;51.538;6.728;2023-10-13T13:05:17;14.90;;;4.43;;
19084;SDS011;9675;51.538;6.728;2023-10-13T13:07:48;18.80;;;4.43;;
19084;SDS011;9675;51.538;6.728;2023-10-13T13:10:19;13.73;;;4.00;;
19084;SDS011;9675;51.538;6.728;2023-10-13T13:13:00;13.03;;;3.27;;
19084;SDS011;9675;51.538;6.728;2023-10-13T13:15:30;16.47;;;4.20;;
19084;SDS011;9675;51.538;6.728;2023-10-13T13:17:57;14.73;;;3.83;;
19084;SDS011;9675;51.538;6.728;2023-10-13T13:20:35;14.97;;;3.10;;
19084;SDS011;9675;51.538;6.728;2023-10-13T13:23:04;12.40;;;3.73;;
19084;SDS011;9675;51.538;6.728;2023-10-13T13:25:31;10.07;;;3.47;;
19084;SDS011;9675;51.538;6.728;2023-10-13T13:27:59;11.93;;;3.67;;
19084;SDS011;9675;51.538;6.728;2023-10-13T13:30:31;12.47;;;3.83;;
19084;SDS011;9675;51.538;6.728;2023-10-13T13:33:02;15.77;;;3.57;;
19084;SDS011;9675;51.538;6.728;2023-10-13T13:35:36;12.53;;;3.23;;
19084;SDS011;9675;51.538;6.728;2023-10-13T13:38:03;10.23;;;3.80;;
19084;SDS011;9675;51.538;6.728;2023-10-13T13:40:47;13.40;;;3.57;;
19084;SDS011;9675;51.538;6.728;2023-10-13T13:43:19;16.10;;;3.23;;
19084;SDS011;9675;51.538;6.728;2023-10-13T13:46:03;13.23;;;3.77;;
19084;SDS011;9675;51.538;6.728;2023-10-13T13:48:34;13.73;;;2.83;;
19084;SDS011;9675;51.538;6.728;2023-10-13T13:51:03;11.00;;;3.47;;
19084;SDS011;9675;51.538;6.728;2023-10-13T13:53:37;10.77;;;3.47;;
19084;SDS011;9675;51.538;6.728;2023-10-13T13:56:07;11.80;;;3.07;;
19084;SDS011;9675;51.538;6.728;2023-10-13T13:58:35;8.13;;;3.23;;
19084;SDS011;9675;51.538;6.728;2023-10-13T14:01:04;13.00;;;3.03;;
19084;SDS011;9675;51.538;6.728;2023-10-13T14:03:39;16.37;;;3.37;;
19084;SDS011;9675;51.538;6.728;2023-10-13T14:06:12;17.53;;;3.50;;
19084;SDS011;9675;51.538;6.728;2023-10-13T14:08:43;8.67;;;3.10;;
19084;SDS011;9675;51.538;6.728;2023-10-13T14:11:13;16.77;;;4.13;;
19084;SDS011;9675;51.538;6.728;2023-10-13T14:14:08;18.93;;;3.40;;
19084;SDS011;9675;51.538;6.728;2023-10-13T14:16:55;12.97;;;4.00;;
19084;SDS011;9675;51.538;6.728;2023-10-13T14:19:28;13.77;;;3.50;;
19084;SDS011;9675;51.538;6.728;2023-10-13T14:21:55;8.40;;;3.20;;
19084;SDS011;9675;51.538;6.728;2023-10-13T14:24:25;13.80;;;3.07;;
19084;SDS011;9675;51.538;6.728;2023-10-13T14:26:53;10.10;;;4.37;;
19084;SDS011;9675;51.538;6.728;2023-10-13T14:29:20;8.30;;;3.20;;
19084;SDS011;9675;51.538;6.728;2023-10-13T14:31:51;8.30;;;2.63;;
19084;SDS011;9675;51.538;6.728;2023-10-13T14:34:19;5.53;;;3.07;;
19084;SDS011;9675;51.538;6.728;2023-10-13T14:36:47;10.03;;;3.87;;
19084;SDS011;9675;51.538;6.728;2023-10-13T14:39:14;9.00;;;2.90;;
19084;SDS011;9675;51.538;6.728;2023-10-13T14:41:41;11.00;;;3.20;;
19084;SDS011;9675;51.538;6.728;2023-10-13T14:44:08;10.47;;;3.83;;
19084;SDS011;9675;51.538;6.728;2023-10-13T14:46:37;13.27;;;3.23;;
19084;SDS011;9675;51.538;6.728;2023-10-13T14:49:05;12.90;;;3.27;;
19084;SDS011;9675;51.538;6.728;2023-10-13T14:51:34;10.63;;;3.20;;
19084;SDS011;9675;51.538;6.728;2023-10-13T14:54:04;15.17;;;3.10;;
19084;SDS011;9675;51.538;6.728;2023-10-13T14:56:32;9.00;;;2.87;;
19084;SDS011;9675;51.538;6.728;2023-10-13T14:58:59;12.43;;;3.37;;
19084;SDS011;9675;51.538;6.728;2023-10-13T15:01:29;10.17;;;3.30;;
19084;SDS011;9675;51.538;6.728;2023-10-13T15:03:57;10.93;;;3.73;;
19084;SDS011;9675;51.538;6.728;2023-10-13T15:06:24;10.17;;;3.50;;
19084;SDS011;9675;51.538;6.728;2023-10-13T15:08:55;10.97;;;3.40;;
19084;SDS011;9675;51.538;6.728;2023-10-13T15:11:25;10.33;;;3.07;;
19084;SDS011;9675;51.538;6.728;2023-10-13T15:14:01;9.33;;;2.87;;
19084;SDS011;9675;51.538;6.728;2023-10-13T15:16:28;15.10;;;3.13;;
19084;SDS011;9675;51.538;6.728;2023-10-13T15:18:55;9.73;;;3.17;;
19084;SDS011;9675;51.538;6.728;2023-10-13T15:21:23;13.73;;;3.43;;
19084;SDS011;9675;51.538;6.728;2023-10-13T15:23:56;10.40;;;3.47;;
19084;SDS011;9675;51.538;6.728;2023-10-13T15:26:28;10.03;;;3.47;;
19084;SDS011;9675;51.538;6.728;2023-10-13T15:28:55;13.60;;;3.07;;
19084;SDS011;9675;51.538;6.728;2023-10-13T15:31:25;10.80;;;2.80;;
19084;SDS011;9675;51.538;6.728;2023-10-13T15:34:02;5.93;;;2.50;;
19084;SDS011;9675;51.538;6.728;2023-10-13T15:36:35;11.23;;;3.77;;
19084;SDS011;9675;51.538;6.728;2023-10-13T15:39:05;4.47;;;2.63;;